Time;durP1;ratioP1;P1;durP2;ratioP2;P2;SDS_P1;SDS_P2;PMS_P1;PMS_P2;Temp;Humidity;BMP_temperature;BMP_pressure;BME280_temperature;BME280_humidity;BME280_pressure;Samples;Min_cycle;Max_cycle;Signal;HPM_P1;HPM_P2
2024/04/12 00:01:01;;;;;;;2.58;1.35;;;;;;;14.57;41.83;101358.27;1743621;82;21041;-74
2024/04/12 00:03:31;;;;;;;4.22;1.30;;;;;;;14.54;41.92;101359.20;1743404;82;20998;-74
2024/04/12 00:06:05;;;;;;;5.90;1.52;;;;;;;14.48;42.02;101358.10;1743581;82;21014;-75
2024/04/12 00:08:34;;;;;;;5.95;1.52;;;;;;;14.45;42.22;101357.64;1743434;82;20960;-74
2024/04/12 00:11:04;;;;;;;4.37;1.40;;;;;;;14.39;42.54;101352.37;1743535;81;20991;-72
2024/04/12 00:13:40;;;;;;;5.35;1.20;;;;;;;14.36;42.53;101351.39;1743583;82;21038;-74
2024/04/12 00:16:08;;;;;;;4.53;1.40;;;;;;;14.33;42.50;101350.94;1743018;82;21038;-73
2024/04/12 00:18:37;;;;;;;4.78;1.42;;;;;;;14.29;42.58;101352.69;1749487;81;21033;-75
2024/04/12 00:21:06;;;;;;;6.85;1.47;;;;;;;14.26;42.67;101354.98;1751826;82;21474;-75
2024/04/12 00:23:35;;;;;;;4.70;1.45;;;;;;;14.19;42.89;101348.03;1751813;82;20986;-73
2024/04/12 00:26:03;;;;;;;4.12;1.50;;;;;;;14.17;43.07;101350.13;1751772;82;20998;-74
2024/04/12 00:28:33;;;;;;;3.77;1.50;;;;;;;14.16;43.14;101348.95;1751930;82;21073;-74
2024/04/12 00:31:02;;;;;;;6.50;1.52;;;;;;;14.12;43.20;101349.02;1751641;82;21006;-76
2024/04/12 00:33:34;;;;;;;3.95;1.30;;;;;;;14.08;43.26;101349.09;1751710;82;21441;-75
2024/04/12 00:36:08;;;;;;;5.95;1.50;;;;;;;14.03;43.43;101353.82;1751774;82;21092;-73
2024/04/12 00:38:41;;;;;;;10.30;1.65;;;;;;;13.99;43.59;101358.02;1751838;82;21002;-74
2024/04/12 00:41:18;;;;;;;2.95;1.37;;;;;;;13.95;43.70;101356.70;1751646;82;21437;-74
2024/04/12 00:43:48;;;;;;;3.65;1.57;;;;;;;13.84;44.05;101357.23;1733361;82;21042;-74
2024/04/12 00:46:25;;;;;;;7.78;1.55;;;;;;;13.84;44.05;101357.23;1733161;82;21018;-74
2024/04/12 00:49:00;;;;;;;5.47;1.62;;;;;;;13.78;44.11;101354.73;1685817;85;21043;-75
2024/04/12 00:51:29;;;;;;;6.70;1.57;;;;;;;13.75;44.19;101358.40;1743982;82;20986;-75
2024/04/12 00:53:57;;;;;;;6.40;1.85;;;;;;;13.69;44.30;101361.41;1743837;81;20994;-75
2024/04/12 00:56:27;;;;;;;4.00;1.37;;;;;;;13.64;44.55;101359.73;1743768;82;21066;-74
2024/04/12 00:58:56;;;;;;;3.10;1.30;;;;;;;13.60;44.69;101357.89;1744061;82;21037;-74
2024/04/12 01:01:24;;;;;;;4.10;1.27;;;;;;;13.58;44.75;101357.23;1743593;82;21046;-76
2024/04/12 01:03:54;;;;;;;2.52;1.30;;;;;;;13.55;44.91;101354.86;1743611;82;20998;-75
2024/04/12 01:06:29;;;;;;;4.25;1.60;;;;;;;13.52;44.99;101356.63;1743734;82;21458;-74
2024/04/12 01:09:04;;;;;;;3.15;1.25;;;;;;;13.48;45.14;101349.80;1743621;82;21006;-75
2024/04/12 01:11:31;;;;;;;4.87;1.55;;;;;;;13.44;45.07;101348.48;1743428;81;21478;-74
2024/04/12 01:14:01;;;;;;;4.97;1.40;;;;;;;13.38;45.20;101349.78;1743667;82;20998;-74
2024/04/12 01:16:30;;;;;;;3.92;1.50;;;;;;;13.35;45.31;101348.27;1717232;82;21508;-75
2024/04/12 01:18:59;;;;;;;3.50;1.37;;;;;;;13.32;45.34;101349.50;1743138;81;21007;-75
2024/04/12 01:21:29;;;;;;;5.75;1.52;;;;;;;13.30;45.45;101346.09;1743114;81;21041;-75
2024/04/12 01:23:57;;;;;;;3.72;1.50;;;;;;;13.29;45.56;101342.16;1743331;82;21026;-74
2024/04/12 01:26:27;;;;;;;4.35;1.37;;;;;;;13.26;45.58;101347.52;1743461;82;21026;-75
2024/04/12 01:28:56;;;;;;;4.12;1.45;;;;;;;13.23;45.59;101348.43;1743464;81;21129;-74
2024/04/12 01:31:27;;;;;;;5.10;1.60;;;;;;;13.19;45.63;101349.34;1743395;82;21065;-76
2024/04/12 01:33:56;;;;;;;5.20;1.60;;;;;;;13.12;45.76;101342.01;1743325;81;21126;-75
2024/04/12 01:36:24;;;;;;;4.67;1.40;;;;;;;13.09;45.91;101342.39;1743537;81;21026;-74
2024/04/12 01:38:58;;;;;;;3.87;1.52;;;;;;;13.08;46.18;101339.30;1743538;82;20999;-72
2024/04/12 01:41:31;;;;;;;4.70;1.50;;;;;;;13.07;46.17;101341.20;1743426;82;21018;-74
2024/04/12 01:44:06;;;;;;;3.65;1.20;;;;;;;13.04;46.18;101342.11;1743564;82;21002;-75
2024/04/12 01:46:39;;;;;;;5.95;1.50;;;;;;;13.03;46.20;101341.25;1743648;81;21097;-74
2024/04/12 01:49:10;;;;;;;6.85;1.60;;;;;;;13.00;46.27;101341.61;1743509;81;20994;-74
2024/04/12 01:51:41;;;;;;;6.65;1.40;;;;;;;12.99;46.29;101339.38;1743464;82;21077;-74
2024/04/12 01:54:17;;;;;;;5.00;1.60;;;;;;;12.99;46.32;101340.75;1743408;82;21419;-74
2024/04/12 01:56:47;;;;;;;6.85;1.52;;;;;;;12.98;46.29;101334.06;1743450;81;21544;-74
2024/04/12 01:59:22;;;;;;;6.25;1.50;;;;;;;12.96;46.33;101332.88;1743342;82;21034;-75
2024/04/12 02:01:53;;;;;;;6.78;1.60;;;;;;;12.95;46.37;101332.55;1743312;82;21026;-74
2024/04/12 02:04:21;;;;;;;3.65;1.42;;;;;;;12.94;46.37;101336.86;1743475;82;21002;-74
2024/04/12 02:06:51;;;;;;;6.55;1.50;;;;;;;12.93;46.43;101336.01;1743333;82;20990;-74
2024/04/12 02:09:19;;;;;;;6.08;1.50;;;;;;;12.92;46.43;101327.42;1743328;81;21073;-75
2024/04/12 02:11:52;;;;;;;7.53;1.75;;;;;;;12.92;46.57;101333.45;1743542;82;20966;-73
2024/04/12 02:14:18;;;;;;;4.58;1.60;;;;;;;12.90;46.55;101332.27;1700089;82;20987;-74
2024/04/12 02:16:50;;;;;;;4.17;1.60;;;;;;;12.89;46.57;101331.94;1743585;81;21042;-75
2024/04/12 02:19:21;;;;;;;4.80;1.60;;;;;;;12.88;46.57;101334.35;1749923;81;21061;-74
2024/04/12 02:21:47;;;;;;;4.25;1.62;;;;;;;12.86;46.70;101333.69;1751386;80;21061;-75
2024/04/12 02:24:18;;;;;;;4.17;1.55;;;;;;;12.83;46.63;101340.94;1751581;81;21089;-75
2024/04/12 02:26:50;;;;;;;7.20;1.62;;;;;;;12.78;46.87;101337.05;1751644;82;21425;-74
2024/04/12 02:29:21;;;;;;;5.47;1.75;;;;;;;12.78;47.02;101337.91;1751845;82;21063;-76
2024/04/12 02:31:50;;;;;;;3.40;1.65;;;;;;;12.78;46.93;101340.66;1751703;81;21001;-76
2024/04/12 02:34:18;;;;;;;6.30;1.60;;;;;;;12.78;46.83;101337.91;1752032;82;21010;-75
2024/04/12 02:36:48;;;;;;;6.05;1.77;;;;;;;12.78;46.82;101338.43;1751766;81;20982;-76
2024/04/12 02:39:22;;;;;;;7.10;1.70;;;;;;;12.76;46.92;101344.12;1751665;82;21042;-74
2024/04/12 02:41:47;;;;;;;8.80;2.10;;;;;;;12.76;46.96;101344.12;1751089;82;21499;-74
2024/04/12 02:44:15;;;;;;;5.55;2.15;;;;;;;12.73;46.93;101339.00;1751614;82;21006;-75
2024/04/12 02:46:44;;;;;;;7.87;1.90;;;;;;;12.75;46.88;101350.66;1751765;82;21029;-75
2024/04/12 02:49:14;;;;;;;9.68;2.70;;;;;;;12.70;46.82;101347.10;1751777;82;21090;-74
2024/04/12 02:51:47;;;;;;;7.75;2.35;;;;;;;12.68;46.78;101350.56;1751423;82;21013;-72
2024/04/12 02:54:13;;;;;;;8.88;2.10;;;;;;;12.66;46.86;101344.92;1751599;82;21034;-74
2024/04/12 02:56:44;;;;;;;8.20;2.10;;;;;;;12.64;46.92;101352.50;1751751;82;21002;-75
2024/04/12 02:59:14;;;;;;;8.33;2.33;;;;;;;12.61;46.94;101353.73;1751548;82;21041;-73
2024/04/12 03:01:43;;;;;;;8.63;2.65;;;;;;;12.59;47.00;101354.97;1751467;80;21105;-75
2024/04/12 03:04:12;;;;;;;7.00;2.30;;;;;;;12.59;47.17;101360.46;1751725;82;21017;-73
2024/04/12 03:06:40;;;;;;;7.58;2.50;;;;;;;12.55;47.16;101355.86;1731129;82;21437;-74
2024/04/12 03:09:11;;;;;;;11.05;2.90;;;;;;;12.56;47.28;101358.09;1751443;80;21022;-74
2024/04/12 03:11:40;;;;;;;6.90;2.60;;;;;;;12.55;47.30;101361.36;1751401;82;21061;-74
2024/04/12 03:14:09;;;;;;;5.10;2.12;;;;;;;12.54;47.40;101360.17;1731030;82;21041;-73
2024/04/12 03:16:39;;;;;;;10.32;2.65;;;;;;;12.53;47.44;101361.20;1751645;80;21021;-73
2024/04/12 03:19:18;;;;;;;8.58;2.83;;;;;;;12.51;47.52;101361.92;1748255;81;21026;-73
2024/04/12 03:21:50;;;;;;;6.58;2.50;;;;;;;12.52;47.62;101363.63;1745888;82;21081;-74
2024/04/12 03:24:20;;;;;;;7.67;2.33;;;;;;;12.51;47.64;101366.90;1746077;81;21010;-75
2024/04/12 03:26:49;;;;;;;5.55;2.58;;;;;;;12.48;47.63;101358.17;1746242;82;20971;-74
2024/04/12 03:29:17;;;;;;;8.58;2.47;;;;;;;12.44;47.75;101365.08;1746003;82;21069;-74
2024/04/12 03:31:50;;;;;;;4.45;2.27;;;;;;;12.41;47.89;101364.08;1745857;82;21021;-77
2024/04/12 03:34:16;;;;;;;6.85;2.40;;;;;;;12.36;48.48;101364.12;1746130;82;21034;-74
2024/04/12 03:41:58;;;;;;;5.90;2.25;;;;;;;12.27;48.74;101366.57;1746092;82;21073;-74
2024/04/12 03:44:30;;;;;;;7.08;2.15;;;;;;;12.25;48.70;101369.17;1746334;82;21022;-76
2024/04/12 03:47:00;;;;;;;9.38;2.20;;;;;;;12.24;48.80;101371.59;1746070;82;21475;-75
2024/04/12 03:49:30;;;;;;;7.90;2.25;;;;;;;12.24;48.91;101368.31;1745465;81;21002;-77
2024/04/12 03:51:59;;;;;;;7.15;2.10;;;;;;;12.24;48.95;101369.69;1746174;81;21072;-75
2024/04/12 03:54:28;;;;;;;8.03;2.52;;;;;;;12.24;48.95;101372.95;1746435;82;21088;-76
2024/04/12 03:57:06;;;;;;;5.42;2.30;;;;;;;12.19;48.95;101369.39;1746335;82;21057;-74
2024/04/12 03:59:30;;;;;;;11.38;2.72;;;;;;;12.19;49.13;101380.91;1745321;82;21468;-76
2024/04/12 04:02:01;;;;;;;6.53;2.52;;;;;;;12.18;49.19;101384.69;1746033;81;21010;-74
2024/04/12 04:04:37;;;;;;;8.48;2.40;;;;;;;12.19;49.24;101383.65;1715759;82;21464;-76
2024/04/12 04:06:58;;;;;;;8.65;2.60;;;;;;;12.19;49.25;101387.25;1744828;82;21042;-77
2024/04/12 04:09:26;;;;;;;9.00;2.33;;;;;;;12.19;49.29;101387.25;1746017;82;21066;-75
2024/04/12 04:11:55;;;;;;;7.97;2.55;;;;;;;12.20;49.31;101386.21;1745988;82;21425;-75
2024/04/12 04:14:28;;;;;;;12.30;2.98;;;;;;;12.21;49.36;101390.67;1746120;81;21049;-75
2024/04/12 04:17:00;;;;;;;7.05;2.10;;;;;;;12.24;49.29;101379.83;1746346;82;21007;-75
2024/04/12 04:19:31;;;;;;;9.80;2.30;;;;;;;12.26;49.29;101382.72;1725693;82;21101;-76
2024/04/12 04:22:21;;;;;;;9.10;2.40;;;;;;;12.28;49.37;101383.39;1754247;82;21053;-75
2024/04/12 04:24:37;;;;;;;6.40;2.20;;;;;;;12.31;49.47;101380.80;1752322;81;21037;-75
2024/04/12 04:27:08;;;;;;;15.48;2.60;;;;;;;12.31;49.41;101387.15;1754203;80;20986;-75
2024/04/12 04:29:37;;;;;;;8.18;2.33;;;;;;;12.31;49.56;101391.27;1754218;82;21041;-76
2024/04/12 04:32:09;;;;;;;7.75;2.52;;;;;;;12.34;49.66;101388.16;1754257;82;21021;-75
2024/04/12 04:34:37;;;;;;;9.85;2.70;;;;;;;12.37;49.53;101387.81;1754296;82;21457;-75
2024/04/12 04:37:05;;;;;;;7.67;2.58;;;;;;;12.38;49.50;101389.52;1754342;80;20986;-75
2024/04/12 04:39:37;;;;;;;10.23;2.77;;;;;;;12.36;49.40;101389.37;1754299;80;21030;-75
2024/04/12 04:42:06;;;;;;;12.65;3.52;;;;;;;12.36;49.41;101385.25;1754296;82;21462;-74
2024/04/12 04:44:36;;;;;;;8.30;2.90;;;;;;;12.36;49.42;101391.60;1754294;81;21434;-75
2024/04/12 04:47:04;;;;;;;8.05;2.75;;;;;;;12.40;49.43;101390.71;1754229;82;21440;-73
2024/04/12 04:49:33;;;;;;;12.85;3.20;;;;;;;12.41;49.49;101390.19;1754238;81;21446;-76
2024/04/12 04:52:02;;;;;;;9.75;2.90;;;;;;;12.46;49.49;101393.23;1754176;82;21450;-74
2024/04/12 04:54:30;;;;;;;13.08;3.75;;;;;;;12.50;49.32;101395.42;1733421;81;21037;-73
2024/04/12 04:57:00;;;;;;;7.42;2.62;;;;;;;12.55;49.25;101387.47;1754434;82;21018;-75
2024/04/12 04:59:29;;;;;;;11.60;3.12;;;;;;;12.62;49.11;101394.45;1754279;82;20993;-74
2024/04/12 05:02:01;;;;;;;7.87;2.60;;;;;;;12.67;48.89;101397.50;1754252;82;21016;-76
2024/04/12 05:04:32;;;;;;;11.57;3.27;;;;;;;12.69;48.71;101400.39;1754184;80;20997;-74
2024/04/12 05:06:59;;;;;;;8.20;2.80;;;;;;;12.76;48.58;101401.02;1754202;82;21471;-75
2024/04/12 05:09:28;;;;;;;7.95;2.80;;;;;;;12.78;48.31;101396.19;1754219;80;21504;-75
2024/04/12 05:11:56;;;;;;;10.25;3.17;;;;;;;12.77;48.14;101399.45;1754256;82;21026;-75
2024/04/12 05:17:06;;;;;;;12.78;2.70;;;;;;;12.74;48.04;101402.58;1754229;80;20970;-75
2024/04/12 05:19:43;;;;;;;8.65;2.40;;;;;;;12.78;47.99;101403.06;1737297;82;21144;-77
2024/04/12 05:22:13;;;;;;;10.65;3.00;;;;;;;12.80;48.00;101408.70;1722993;82;21601;-75
2024/04/12 05:24:42;;;;;;;8.68;2.87;;;;;;;12.81;47.91;101406.81;1722847;83;21118;-73
2024/04/12 05:27:11;;;;;;;14.43;2.83;;;;;;;12.77;47.79;101407.70;1722714;83;21086;-75
2024/04/12 05:29:45;;;;;;;12.00;3.30;;;;;;;12.79;47.87;101407.00;1722867;83;21042;-76
2024/04/12 05:32:12;;;;;;;11.48;2.90;;;;;;;12.82;47.94;101409.38;1722565;82;21071;-75
2024/04/12 05:34:41;;;;;;;12.35;2.67;;;;;;;12.86;47.84;101405.73;1722819;83;21070;-74
2024/04/12 05:37:10;;;;;;;12.70;2.92;;;;;;;12.91;47.63;101402.75;1722750;83;21034;-75
2024/04/12 05:39:41;;;;;;;8.35;2.52;;;;;;;12.92;47.41;101400.33;1722733;82;21085;-76
2024/04/12 05:42:11;;;;;;;9.93;2.65;;;;;;;12.95;47.36;101404.08;1722805;82;21074;-75
2024/04/12 05:44:41;;;;;;;10.53;2.65;;;;;;;12.96;47.26;101394.78;1689373;84;21083;-76
2024/04/12 05:47:10;;;;;;;11.38;5.08;;;;;;;13.00;47.24;101396.63;1689314;84;21106;-75
2024/04/12 05:49:38;;;;;;;9.75;2.90;;;;;;;13.06;47.08;101397.80;1707054;83;21042;-76
2024/04/12 05:52:08;;;;;;;7.35;2.58;;;;;;;13.11;46.99;101403.06;1722669;82;21018;-73
2024/04/12 05:54:39;;;;;;;8.23;3.02;;;;;;;13.14;46.82;101401.31;1679759;82;21145;-75
2024/04/12 05:57:08;;;;;;;10.15;2.55;;;;;;;13.20;46.64;101399.73;1703013;83;21062;-75
2024/04/12 05:59:40;;;;;;;10.58;2.65;;;;;;;13.24;46.45;101399.16;1722607;83;21109;-76
2024/04/12 06:02:09;;;;;;;10.68;2.55;;;;;;;13.29;46.37;101399.44;1722738;83;21563;-75
2024/04/12 06:04:39;;;;;;;9.33;2.45;;;;;;;13.34;46.23;101401.62;1722881;82;21039;-77
2024/04/12 06:07:13;;;;;;;10.20;2.65;;;;;;;13.40;46.08;101404.13;1702449;83;21552;-74
2024/04/12 06:09:47;;;;;;;8.20;2.02;;;;;;;13.43;45.83;101399.09;1722460;82;21069;-74
2024/04/12 06:12:12;;;;;;;9.73;2.30;;;;;;;13.48;45.85;101403.49;1722751;83;21102;-75
2024/04/12 06:14:42;;;;;;;8.35;2.42;;;;;;;13.53;45.59;101402.39;1722707;83;21062;-76
2024/04/12 06:17:11;;;;;;;10.35;3.00;;;;;;;13.58;45.42;101403.19;1722727;82;21042;-76
2024/04/12 06:19:40;;;;;;;11.68;2.70;;;;;;;13.62;45.26;101397.11;1721216;80;21030;-76
2024/04/12 06:22:13;;;;;;;7.90;2.30;;;;;;;13.71;45.04;101403.91;1720342;83;21174;-75
2024/04/12 06:24:48;;;;;;;9.18;2.77;;;;;;;13.78;44.61;101399.33;1720255;83;21070;-75
2024/04/12 06:27:14;;;;;;;7.90;2.52;;;;;;;13.82;44.17;101400.65;1719453;83;21071;-75
2024/04/12 06:29:46;;;;;;;7.40;2.50;;;;;;;13.85;43.93;101403.02;1720035;83;21070;-74
2024/04/12 06:32:16;;;;;;;8.75;2.40;;;;;;;13.89;43.82;101398.30;1720108;83;21548;-76
2024/04/12 06:34:43;;;;;;;12.85;2.37;;;;;;;13.93;43.52;101398.76;1720441;82;21521;-75
2024/04/12 06:37:15;;;;;;;10.80;2.10;;;;;;;13.98;43.44;101396.27;1720185;83;21085;-74
2024/04/12 06:39:43;;;;;;;12.55;2.20;;;;;;;14.05;42.80;101413.73;1720210;83;21556;-74
2024/04/12 06:42:14;;;;;;;8.33;2.52;;;;;;;14.11;42.26;101400.54;1720113;83;21066;-75
2024/04/12 06:44:49;;;;;;;7.25;2.00;;;;;;;14.16;42.24;101400.80;1720252;83;21066;-75
2024/04/12 06:47:18;;;;;;;8.70;2.40;;;;;;;14.22;42.05;101407.43;1720177;82;21529;-76
2024/04/12 06:49:47;;;;;;;15.23;3.00;;;;;;;14.28;42.09;101403.88;1720346;83;21050;-77
2024/04/12 06:52:20;;;;;;;9.80;2.05;;;;;;;14.33;42.09;101409.69;1720253;83;21086;-75
2024/04/12 06:54:46;;;;;;;8.10;2.25;;;;;;;14.39;42.01;101399.77;1720112;83;21092;-73
2024/04/12 06:57:18;;;;;;;7.97;2.40;;;;;;;14.42;41.99;101396.62;1720325;82;21026;-75
2024/04/12 06:59:47;;;;;;;11.75;3.20;;;;;;;14.45;42.18;101393.50;1720136;82;21503;-76
2024/04/12 07:02:23;;;;;;;10.20;2.52;;;;;;;14.54;42.18;101399.20;1720305;82;21066;-75
2024/04/12 07:04:48;;;;;;;10.38;2.20;;;;;;;14.81;41.60;101402.48;1719867;83;21070;-76
2024/04/12 07:07:22;;;;;;;12.00;2.40;;;;;;;15.20;41.33;101398.31;1720177;83;21534;-77
2024/04/12 07:09:46;;;;;;;8.43;2.55;;;;;;;15.69;40.80;101398.70;1719674;82;21078;-76
2024/04/12 07:12:19;;;;;;;11.18;2.60;;;;;;;16.24;39.94;101389.27;1720161;83;21074;-74
2024/04/12 07:14:46;;;;;;;7.60;2.17;;;;;;;16.77;38.95;101389.34;1720063;83;21002;-73
2024/04/12 07:17:21;;;;;;;9.25;2.40;;;;;;;17.11;38.34;101379.94;1720275;82;21067;-76
2024/04/12 07:19:51;;;;;;;15.08;3.30;;;;;;;17.28;37.87;101395.02;1715258;81;21074;-75
2024/04/12 07:22:21;;;;;;;9.88;2.00;;;;;;;17.32;37.45;101397.67;1743064;82;21070;-74
2024/04/12 07:24:51;;;;;;;9.55;2.95;;;;;;;17.32;36.82;101394.05;1743073;82;21023;-75
2024/04/12 07:27:29;;;;;;;13.03;2.62;;;;;;;17.24;36.59;101393.75;1743092;82;21446;-74
2024/04/12 07:29:58;;;;;;;5.20;2.08;;;;;;;17.24;36.48;101397.05;1743054;82;20970;-73
2024/04/12 07:32:35;;;;;;;9.45;2.65;;;;;;;17.37;36.29;101399.25;1743134;82;21430;-75
2024/04/12 07:34:59;;;;;;;8.83;2.30;;;;;;;17.66;36.54;101399.30;1706849;82;20991;-76
2024/04/12 07:37:28;;;;;;;9.15;2.37;;;;;;;18.12;35.76;101397.35;1743076;82;21042;-75
2024/04/12 07:40:17;;;;;;;6.45;2.52;;;;;;;18.58;35.21;101392.87;1716713;82;21030;-76
2024/04/12 07:42:46;;;;;;;10.53;2.50;;;;;;;19.05;34.47;101394.74;1743382;82;21017;-75
2024/04/12 07:45:25;;;;;;;6.53;2.40;;;;;;;19.54;33.29;101381.31;1743220;81;21470;-75
2024/04/12 07:48:28;;;;;;;6.78;2.75;;;;;;;19.88;33.05;101377.85;1743167;81;21014;-73
2024/04/12 07:50:33;;;;;;;10.63;2.77;;;;;;;20.17;32.52;101376.17;1738771;82;21011;-75
2024/04/12 07:53:10;;;;;;;7.90;2.72;;;;;;;20.47;32.01;101377.55;1716784;82;21458;-76
2024/04/12 07:55:35;;;;;;;8.18;2.30;;;;;;;20.69;31.58;101370.00;1742374;82;21461;-73
2024/04/12 07:58:08;;;;;;;10.30;2.27;;;;;;;20.73;30.89;101373.45;1743195;82;21043;-76
2024/04/12 08:00:42;;;;;;;7.05;2.60;;;;;;;20.74;31.02;101368.19;1762902;79;21047;-75
2024/04/12 08:03:07;;;;;;;14.58;3.00;;;;;;;20.82;31.08;101365.62;1742297;81;21019;-80
2024/04/12 08:08:15;;;;;;;10.18;2.50;;;;;;;21.24;30.82;101370.52;1717006;81;21019;-79
2024/04/12 08:10:45;;;;;;;12.58;2.60;;;;;;;21.45;30.11;101363.45;1724902;81;21032;-78
2024/04/12 08:13:23;;;;;;;11.00;2.40;;;;;;;21.65;29.35;101367.24;1764205;81;21059;-78
2024/04/12 08:15:48;;;;;;;8.58;2.20;;;;;;;21.67;28.88;101355.29;1763344;81;21020;-79
2024/04/12 08:18:20;;;;;;;7.00;2.20;;;;;;;21.74;28.78;101351.26;1733795;82;21044;-80
2024/04/12 08:20:46;;;;;;;6.40;2.30;;;;;;;21.89;28.57;101347.07;1753502;81;21024;-81
2024/04/12 08:23:17;;;;;;;5.60;2.30;;;;;;;21.82;28.74;101338.86;1740281;82;21068;-79
2024/04/12 08:25:48;;;;;;;14.83;2.70;;;;;;;21.76;29.00;101342.64;1740297;82;21073;-80
2024/04/12 08:28:17;;;;;;;12.78;2.52;;;;;;;21.95;28.75;101344.12;1740370;82;21542;-75
2024/04/12 08:30:52;;;;;;;8.23;2.55;;;;;;;22.15;28.33;101343.72;1740361;81;21105;-79
2024/04/12 08:33:24;;;;;;;7.62;2.50;;;;;;;22.33;27.92;101343.48;1756420;81;21507;-80
2024/04/12 08:35:57;;;;;;;8.25;2.60;;;;;;;22.35;27.94;101338.50;1719946;82;21018;-78
2024/04/12 08:38:26;;;;;;;8.33;2.30;;;;;;;22.44;27.75;101333.34;1723875;83;20990;-75
2024/04/12 08:40:57;;;;;;;8.35;2.40;;;;;;;22.37;28.19;101328.47;1702031;83;21136;-79
2024/04/12 08:43:41;;;;;;;5.83;2.40;;;;;;;22.23;27.69;101318.73;1702200;83;21519;-78
2024/04/12 08:45:58;;;;;;;12.20;2.27;;;;;;;22.09;28.00;101316.78;1699840;82;21069;-80
2024/04/12 08:48:26;;;;;;;15.20;2.50;;;;;;;22.21;28.17;101317.59;1723814;83;21115;-78
2024/04/12 08:51:04;;;;;;;10.13;2.20;;;;;;;22.37;27.62;101312.56;1701915;83;21024;-77
2024/04/12 08:53:26;;;;;;;7.20;1.95;;;;;;;22.54;26.85;101304.72;1723819;83;21089;-79
2024/04/12 08:55:55;;;;;;;6.78;2.42;;;;;;;22.66;26.43;101301.28;1723802;83;21025;-79
2024/04/12 08:58:24;;;;;;;8.25;1.90;;;;;;;22.62;26.31;101295.36;1723954;83;21029;-78
2024/04/12 09:00:54;;;;;;;6.10;1.60;;;;;;;22.49;25.77;101287.88;1723897;83;21097;-79
2024/04/12 09:03:26;;;;;;;5.90;1.90;;;;;;;22.09;25.84;101295.84;1723905;83;21092;-80
2024/04/12 09:05:57;;;;;;;5.58;2.30;;;;;;;21.79;26.62;101302.53;1702666;83;21515;-78
2024/04/12 09:08:28;;;;;;;12.88;2.62;;;;;;;21.62;27.29;101291.88;1711414;82;21092;-79
2024/04/12 09:11:05;;;;;;;7.08;2.10;;;;;;;21.53;27.59;101285.55;1740232;81;21029;-79
2024/04/12 09:13:36;;;;;;;9.43;2.15;;;;;;;21.38;27.52;101275.75;1740534;81;21057;-78
2024/04/12 09:16:08;;;;;;;8.85;2.25;;;;;;;21.13;27.90;101271.02;1756371;80;21028;-74
2024/04/12 09:18:46;;;;;;;8.03;2.40;;;;;;;20.96;28.18;101270.94;1740390;81;21069;-79
2024/04/12 09:21:36;;;;;;;6.90;2.40;;;;;;;20.78;28.28;101277.47;1766742;81;21509;-80
2024/04/12 09:23:58;;;;;;;5.58;1.67;;;;;;;20.56;29.61;101287.00;1775897;81;20995;-79
2024/04/12 09:26:39;;;;;;;7.35;2.40;;;;;;;20.42;28.39;101277.73;1745723;81;21035;-79
2024/04/12 09:29:09;;;;;;;8.45;2.02;;;;;;;20.25;28.73;101274.78;1775811;80;21023;-80
2024/04/12 09:34:22;;;;;;;8.53;2.83;;;;;;;19.93;29.60;101263.09;1776936;81;21039;-79
2024/04/12 09:37:02;;;;;;;6.85;2.35;;;;;;;19.68;29.57;101247.97;1776477;81;21000;-77
2024/04/12 09:39:57;;;;;;;8.10;2.00;;;;;;;19.57;30.32;101251.56;1776893;81;20987;-82
2024/04/12 09:42:12;;;;;;;5.20;1.98;;;;;;;19.50;30.76;101241.02;1776000;80;21067;-76
2024/04/12 09:44:48;;;;;;;6.08;2.10;;;;;;;19.45;30.70;101233.92;1776538;81;21012;-79
2024/04/12 10:37:36;;;;;;;5.72;1.77;;;;;;;19.11;30.51;101201.59;1703079;84;21041;-79
2024/04/12 10:40:09;;;;;;;12.68;2.15;;;;;;;19.15;30.79;101192.24;1727376;82;21096;-82
2024/04/12 10:42:42;;;;;;;11.68;3.60;;;;;;;19.21;30.23;101189.37;1709704;84;21077;-84
2024/04/12 10:45:15;;;;;;;5.12;2.00;;;;;;;19.21;30.19;101187.13;1686864;85;21046;-82
2024/04/12 10:47:44;;;;;;;8.85;2.00;;;;;;;19.19;30.27;101179.58;1745461;82;21013;-80
2024/04/12 10:50:23;;;;;;;7.62;1.80;;;;;;;19.21;30.49;101181.58;1709292;83;21531;-80
2024/04/12 10:52:51;;;;;;;4.58;1.60;;;;;;;19.29;30.24;101182.09;1745579;82;21440;-83
2024/04/12 10:55:20;;;;;;;9.83;2.00;;;;;;;19.30;30.26;101174.60;1710345;83;21089;-83
2024/04/12 10:57:48;;;;;;;9.88;1.80;;;;;;;19.30;30.77;101178.77;1711198;82;21065;-84
2024/04/12 11:00:27;;;;;;;6.30;1.80;;;;;;;19.32;30.66;101173.28;1710068;83;21190;-80
2024/04/12 11:02:54;;;;;;;6.37;2.40;;;;;;;19.37;30.78;101171.72;1710108;83;21500;-79
2024/04/12 11:07:52;;;;;;;7.95;2.37;;;;;;;19.39;30.79;101158.44;1710946;82;21478;-80
2024/04/12 11:10:37;;;;;;;7.55;1.70;;;;;;;19.39;31.05;101157.89;1754888;81;21055;-79
2024/04/12 11:13:10;;;;;;;6.67;2.15;;;;;;;19.44;31.05;101152.47;1737593;82;21440;-81
2024/04/12 11:32:24;;;;;;;6.80;1.72;;;;;;;19.68;32.32;101131.18;1756260;82;21043;-82
2024/04/12 11:34:55;;;;;;;7.00;1.85;;;;;;;19.69;32.37;101115.34;1756310;82;21011;-78
2024/04/12 11:37:24;;;;;;;7.45;2.77;;;;;;;19.71;32.54;101108.45;1756259;82;21094;-80
2024/04/12 11:39:54;;;;;;;7.70;1.80;;;;;;;19.77;32.43;101106.64;1756237;82;21043;-80
2024/04/12 11:42:23;;;;;;;6.05;1.95;;;;;;;19.85;32.68;101104.89;1722755;81;21078;-80
2024/04/12 11:44:53;;;;;;;5.60;1.80;;;;;;;19.95;32.67;101105.13;1756083;81;21486;-80
2024/04/12 11:47:23;;;;;;;8.28;2.02;;;;;;;20.03;32.57;101092.78;1755631;82;21082;-78
2024/04/12 11:49:57;;;;;;;8.08;2.30;;;;;;;20.08;32.79;101098.47;1756118;82;21474;-80
2024/04/12 11:52:22;;;;;;;4.95;1.67;;;;;;;20.17;32.85;101092.86;1753380;80;21067;-80
2024/04/12 11:54:53;;;;;;;10.95;2.30;;;;;;;20.21;33.02;101094.91;1756019;81;21023;-79
2024/04/12 11:57:27;;;;;;;14.00;3.33;;;;;;;20.26;33.21;101099.20;1756216;82;21015;-80
2024/04/12 12:00:00;;;;;;;4.85;2.12;;;;;;;20.30;33.46;101091.20;1756212;82;21090;-78
2024/04/12 12:02:32;;;;;;;7.78;2.05;;;;;;;20.33;34.08;101074.02;1755739;82;21459;-79
2024/04/12 12:05:05;;;;;;;5.97;1.85;;;;;;;20.28;33.81;101089.22;1756341;82;21459;-76
2024/04/12 12:07:36;;;;;;;4.22;1.80;;;;;;;20.23;33.87;101073.80;1756049;82;21023;-77
2024/04/12 12:10:08;;;;;;;7.50;2.00;;;;;;;20.13;33.80;101066.04;1729778;82;21020;-79
2024/04/12 12:12:37;;;;;;;4.10;1.85;;;;;;;20.07;33.96;101055.04;1748168;81;21508;-79
2024/04/12 12:15:08;;;;;;;5.03;2.00;;;;;;;20.02;34.34;101064.67;1748630;82;21030;-81
2024/04/12 12:17:37;;;;;;;5.75;1.82;;;;;;;20.03;34.55;101050.52;1758823;81;21426;-77
2024/04/12 12:20:07;;;;;;;5.72;1.92;;;;;;;20.10;34.83;101055.40;1748215;82;20971;-76
2024/04/12 12:22:38;;;;;;;4.00;1.85;;;;;;;20.20;34.63;101050.63;1718831;82;21062;-76
2024/04/12 12:25:07;;;;;;;6.40;1.75;;;;;;;20.19;34.40;101056.74;1745439;81;21030;-78
2024/04/12 12:27:36;;;;;;;5.40;2.40;;;;;;;20.17;34.58;101043.62;1745284;82;21039;-80
2024/04/12 12:30:14;;;;;;;7.65;2.40;;;;;;;20.17;34.69;101043.62;1718611;82;20994;-81
2024/04/12 12:32:39;;;;;;;7.03;1.80;;;;;;;20.16;34.67;101053.06;1744774;81;21058;-78
2024/04/12 12:35:08;;;;;;;5.25;1.80;;;;;;;20.12;34.90;101046.26;1745669;81;21063;-77
2024/04/12 12:37:37;;;;;;;3.75;1.60;;;;;;;20.09;34.78;101038.95;1718997;82;21010;-80
2024/04/12 12:40:13;;;;;;;6.80;1.52;;;;;;;19.99;35.08;101045.13;1695036;83;21062;-81
2024/04/12 12:42:38;;;;;;;5.25;1.70;;;;;;;19.95;35.38;101036.44;1763710;80;21015;-83
2024/04/12 12:45:11;;;;;;;7.30;1.80;;;;;;;19.91;35.47;101042.19;1743723;81;21015;-78
2024/04/12 12:47:52;;;;;;;6.00;1.72;;;;;;;19.92;35.95;101036.92;1776518;81;21054;-80
2024/04/12 12:50:20;;;;;;;7.17;2.00;;;;;;;19.93;35.69;101033.59;1776585;80;21502;-81
2024/04/12 12:52:52;;;;;;;9.88;2.35;;;;;;;19.98;35.79;101024.52;1776520;81;21002;-81
2024/04/12 12:55:23;;;;;;;6.85;2.45;;;;;;;20.02;36.05;101025.72;1776331;81;21003;-78
2024/04/12 12:58:09;;;;;;;7.58;2.10;;;;;;;20.05;35.83;101026.08;1776462;81;21003;-80
2024/04/12 13:00:31;;;;;;;2.95;1.40;;;;;;;20.06;36.23;101021.35;1775991;81;21007;-81
2024/04/12 13:02:55;;;;;;;4.30;1.47;;;;;;;20.10;36.08;101024.80;1776323;81;21007;-80